首页
METAR-TAF:

METAR-TAF

机场 :

雅西, 罗马尼亚

纬度: 47-10N, 经度: 027-38E, 海拔: 102米

当前天气观测

该预报发布于40分钟前的19:30 UTC
风速7节,风向西转西北
温度 12°C
湿度 35%
气压 1010 hPa
能见度10公里或以上
1500米以下无云,无积雨云

METAR: LRIA 281930Z 29007KT CAVOK 12/M03 Q1010

时间: 22:10 (20:10 UTC)

预报

该预报发布于3小时和10分钟前的17:00 UTC
预报有效从28日的 18点(UTC)到 29日的 03点(UTC)
风速6节,风向西北
能见度10公里或以上
1500米以下无云,无积雨云

TAF: LRIA 281700Z 2818/2903 31006KT CAVOK

超过4000个机场的气象观测和天气预报(METAR&TAF报告)。

可查询的气象台以黄色和红色小点在地图上表示。

将鼠标移到小点上方,可查看气象台名称。

然后点击查看天气观测和预报。

如需切换地图:点击带黑十字的绿色按钮放大地图;点击带横线的绿色按钮缩小地图;或者点击绿色箭头查看邻近地区的地图。


METAR-TAF: